This demonstration page uses our WeatherBlox Daily Observations layout. Learn more.

Hourly Observations for October 22, 2017

Temp ( °F °C ) Dew Point ( °F °C ) Humidity (%) Winds ( mph kmh ) Pressure ( in mb ) Visibility ( mi km ) Precip ( " mm )
12:54 am 00:54 Clear 49 9.4 40 4.4 71 71 Calm 30 1016 10 16.09344 0 0
1:54 am 01:54 Clear 49 9.4 40 4.4 71 71 Calm 29.97 1015 10 16.09344 0 0
2:54 am 02:54 Clear 46 7.8 40 4.4 79 79 Calm 30 1016 10 16.09344 0 0
3:54 am 03:54 Clear 47 8.3 40 4.4 77 77 W 3 6 30.03 1017 10 16.09344 0 0
4:54 am 04:54 Clear 45 7.2 38 3.3 77 77 Calm 30.06 1018 10 16.09344 0 0
5:54 am 05:54 Clear 44 6.7 37 2.8 76 76 Calm 30.09 1019 10 16.09344 0 0
6:54 am 06:54 Clear 41 5 36 2.2 82 82 Calm 30.12 1020 10 16.09344 0 0
7:54 am 07:54 Sunny 41 5 35 1.7 79 79 SW 3 6 30.12 1020 10 16.09344 0 0
8:54 am 08:54 Sunny 43 6.1 36 2.2 76 76 Calm 30.15 1021 10 16.09344 0 0
9:54 am 09:54 Sunny 51 10.6 39 3.9 64 64 Calm 30.15 1021 10 16.09344 0 0
10:54 am 10:54 Sunny 57 13.9 39 3.9 51 51 SW 5 7 30.12 1020 10 16.09344 0 0
11:54 am 11:54 Sunny 64 17.8 36 2.2 35 35 SW 10 17 30.12 1020 10 16.09344 0 0
12:54 pm 12:54 Sunny 66 18.9 30 -1.1 26 26 SW 12 19 30.09 1019 10 16.09344 0 0
1:54 pm 13:54 Sunny 69 20.6 27 -2.8 21 21 SW 10 17 30.06 1018 10 16.09344 0 0
2:54 pm 14:54 Sunny 70 21.1 27 -2.8 20 20 SW 15 24 30.03 1017 10 16.09344 0 0
3:54 pm 15:54 Sunny 71 21.7 22 -5.6 16 16 WSW 13 20 30 1016 10 16.09344 0 0
4:54 pm 16:54 Sunny 70 21.1 23 -5 17 17 SW 15 24 30 1016 10 16.09344 0 0
5:54 pm 17:54 Sunny 68 20 27 -2.8 21 21 SSW 7 11 30 1016 10 16.09344 0 0
6:54 pm 18:54 Clear 56 13.3 34 1.1 44 44 S 6 9 30 1016 10 16.09344 0 0
7:54 pm 19:54 Clear 53 11.7 35 1.7 51 51 S 8 13 30 1016 10 16.09344 0 0
8:54 pm 20:54 Clear 51 10.6 34 1.1 52 52 S 6 9 30 1016 10 16.09344 0 0
9:54 pm 21:54 Clear 49 9.4 35 1.7 59 59 S 8 13 29.97 1015 10 16.09344 0 0
10:54 pm 22:54 Clear 51 10.6 34 1.1 52 52 SSE 6 9 29.97 1015 10 16.09344 0 0
11:54 pm 23:54 Clear 47 8.3 35 1.7 63 63 S 7 11 29.94 1014 10 16.09344 0 0

Powered by AerisWeather